Lawndale, California
Current Conditions -  °F | °C
As of 8:53 AM on Friday 19 Dec 2014 (Local Time) from KHHR Reporting Station
Clear Clear  
Wind Chill: 58°   Ceiling: Unl
Heat Index: 58°   Visibility: 7mi
Dew Point: 45°   Wind: 3mph
Humidity: 62%   Direction: 90°E
Pressure: 30.24"   Gusts: NA
Location:  33.9°N, 118.35°W
Report Text: KHHR 191653Z 09003KT 7SM CLR 14/07 A3024 RMK AO2 SLP240 T01440072
Loading
Personal Weather Stations






























Interactive Weather Map New forecast layout! Learn more

10-Day Weather Forecast

Advertisements
Track Severe Weather on mobile